You must use a browser capable of displaying tables to view this page.

The table shows the data used to make the storm track maps. Click on the storm name in the first row to get a close up view of the storm track.

Name Date Time (UT) Lat (degrees) Lon (degrees) Course (true) Speed (knots) Pressure (mb) Wind (knots) Gusts (knots) Type Actual / Forecast WMO
HAIMA 2011-06-16 18:00 9.0N 129.5E 335 04 ??? 025 035 DEP ACT WTPN31
HAIMA 2011-06-17 00:00 9.7N 129.3E 345 07 ??? 025 035 DEP ACT WTPN31
HAIMA 2011-06-17 06:00 10.9N 128.7E 335 13 ??? 025 035 DEP ACT WTPN31
HAIMA 2011-06-17 12:00 11.8N 127.8E 315 13 ??? 025 035 DEP ACT WTPN31
HAIMA 2011-06-17 18:00 12.9N 126.7E 315 13 ??? 030 040 DEP ACT WTPN31
HAIMA 2011-06-18 00:00 13.6N 126.2E 320 11 ??? 030 040 DEP ACT WTPN31
HAIMA 2011-06-18 06:00 14.5N 125.5E 325 11 ??? 035 045 STO ACT WTPN31
HAIMA 2011-06-18 12:00 15.3N 124.9E 325 10 ??? 035 045 STO ACT WTPN31
HAIMA 2011-06-18 18:00 15.5N 124.9E 330 06 ??? 035 045 STO ACT WTPN31
HAIMA 2011-06-19 00:00 16.9N 124.2E 335 12 ??? 035 045 STO ACT WTPN31
HAIMA 2011-06-19 06:00 17.7N 123.5E 320 10 ??? 035 045 STO ACT WTPN31
HAIMA 2011-06-19 12:00 18.7N 122.8E 325 12 ??? 035 045 STO ACT WTPN31
HAIMA 2011-06-19 18:00 19.7N 121.4E 305 15 ??? 030 040 DEP ACT WTPN31
HAIMA 2011-06-20 00:00 20.3N 120.0E 295 14 ??? 030 040 DEP ACT WTPN31
HAIMA 2011-06-20 06:00 20.4N 119.0E 275 09 ??? 030 040 DEP ACT WTPN31
HAIMA 2011-06-20 12:00 20.5N 118.1E 275 08 ??? 035 045 STO ACT WTPN31
HAIMA 2011-06-20 18:00 19.8N 116.9E 255 11 ??? 030 040 DEP ACT WTPN31
HAIMA 2011-06-21 00:00 19.7N 116.3E 265 09 ??? 030 040 DEP ACT WTPN31
HAIMA 2011-06-21 06:00 19.0N 115.0E 245 12 ??? 025 035 DEP ACT WTPN31
HAIMA 2011-06-21 12:00 18.7N 114.1E 250 09 ??? 025 035 DEP ACT WTPN31
HAIMA 2011-06-21 18:00 19.0N 114.7E 255 07 ??? 030 040 DEP ACT WTPN31
HAIMA 2011-06-22 00:00 20.2N 113.2E 315 10 ??? 030 040 DEP ACT WTPN31
HAIMA 2011-06-22 06:00 20.4N 112.7E 295 05 ??? 025 035 DEP ACT WTPN31
HAIMA 2011-06-22 12:00 20.8N 112.1E 305 07 ??? 025 035 DEP ACT WTPN31
HAIMA 2011-06-22 18:00 21.1N 112.7E 325 05 ??? 030 040 DEP ACT WTPN31
HAIMA 2011-06-23 00:00 21.3N 112.2E 300 04 ??? 035 045 STO ACT WTPN31
HAIMA 2011-06-23 06:00 21.2N 111.1E 265 10 ??? 035 045 STO ACT WTPN31
HAIMA 2011-06-23 12:00 21.4N 110.0E 280 10 ??? 030 040 DEP ACT WTPN31
HAIMA 2011-06-23 18:00 21.1N 109.1E 250 09 ??? 030 040 DEP ACT WTPN31
HAIMA 2011-06-24 00:00 20.8N 108.3E 250 08 ??? 035 045 STO ACT WTPN31
HAIMA 2011-06-24 06:00 20.3N 107.3E 250 10 ??? 035 045 STO ACT WTPN31
HAIMA 2011-06-24 12:00 20.1N 106.2E 260 11 ??? 035 045 STO ACT WTPN31
HAIMA 2011-06-24 18:00 20.1N 105.1E 270 10 ??? 025 035 DEP ACT WTPN31
HAIMA 2011-06-25 06:00 19.4N 102.8E ??? ??? ??? 020 030 ??? FOR WTPN31
HAIMA 2011-06-25 18:00 18.3N 100.8E ??? ??? ??? 010 020 ??? FOR WTPN31


Home Back

metcalf@akala.ifa.hawaii.edu